createdAt,value
2023-02-14T00:00:24.105Z,451.50
2023-02-14T00:01:24.100Z,455.90
2023-02-14T00:02:24.100Z,451.70
2023-02-14T00:03:24.097Z,465.00
2023-02-14T00:04:24.182Z,435.50
2023-02-14T00:05:24.059Z,469.20
2023-02-14T00:06:24.046Z,501.00
2023-02-14T00:07:24.057Z,456.50
2023-02-14T00:08:24.028Z,477.50
2023-02-14T00:09:24.032Z,425.70
2023-02-14T00:10:24.021Z,492.40
2023-02-14T00:11:24.011Z,414.30
2023-02-14T00:12:24.009Z,440.50
2023-02-14T00:13:23.981Z,505.30
2023-02-14T00:14:23.984Z,454.30
2023-02-14T00:15:23.968Z,483.70
2023-02-14T00:16:24.009Z,443.80
2023-02-14T00:17:23.984Z,480.70
2023-02-14T00:18:23.929Z,426.10
2023-02-14T00:19:23.921Z,449.50
2023-02-14T00:20:23.904Z,410.20
2023-02-14T00:21:23.906Z,458.10
2023-02-14T00:22:23.914Z,438.90
2023-02-14T00:23:23.880Z,450.50
2023-02-14T00:24:23.876Z,447.20
2023-02-14T00:25:23.860Z,424.80
2023-02-14T00:26:23.847Z,416.10
2023-02-14T00:27:23.857Z,427.20
2023-02-14T00:28:23.825Z,440.40
2023-02-14T00:29:23.834Z,399.80
2023-02-14T00:30:23.894Z,433.70
2023-02-14T00:31:23.915Z,477.20
2023-02-14T00:32:23.806Z,483.60
2023-02-14T00:33:23.787Z,501.20
2023-02-14T00:34:23.767Z,515.40
2023-02-14T00:35:23.759Z,491.50
2023-02-14T00:36:23.765Z,487.90
2023-02-14T00:37:23.751Z,540.10
2023-02-14T00:38:23.729Z,520.20
2023-02-14T00:39:23.712Z,539.90
2023-02-14T00:40:23.725Z,532.70
2023-02-14T00:41:23.690Z,476.60
2023-02-14T00:42:23.689Z,461.70
2023-02-14T00:43:23.676Z,514.80
2023-02-14T00:44:23.665Z,492.50
2023-02-14T00:45:23.765Z,452.90
2023-02-14T00:46:23.648Z,489.10
2023-02-14T00:47:23.641Z,456.10
2023-02-14T00:48:23.631Z,440.90
2023-02-14T00:49:23.611Z,409.30
2023-02-14T00:50:23.609Z,421.40
2023-02-14T00:51:23.587Z,354.20
2023-02-14T00:52:23.603Z,349.80
2023-02-14T00:53:23.566Z,361.70
2023-02-14T00:54:23.572Z,370.00
2023-02-14T00:55:23.574Z,347.60
2023-02-14T00:56:23.545Z,376.10
2023-02-14T00:57:23.533Z,362.50
2023-02-14T00:58:23.524Z,365.90
2023-02-14T00:59:23.509Z,354.50
2023-02-14T01:00:23.519Z,401.00
2023-02-14T01:01:23.520Z,373.70
2023-02-14T01:02:23.568Z,400.00
2023-02-14T01:03:23.468Z,357.90
2023-02-14T01:04:23.464Z,382.60
2023-02-14T01:05:23.460Z,384.80
2023-02-14T01:06:23.446Z,395.70
2023-02-14T01:07:23.481Z,420.30
2023-02-14T01:08:23.429Z,431.90
2023-02-14T01:09:23.407Z,415.00
2023-02-14T01:10:23.401Z,446.80
2023-02-14T01:11:23.401Z,495.80
2023-02-14T01:12:23.408Z,459.20
2023-02-14T01:13:23.380Z,439.10
2023-02-14T01:14:23.359Z,387.20
2023-02-14T01:15:23.343Z,529.20
2023-02-14T01:16:23.375Z,477.10
2023-02-14T01:17:23.379Z,524.30
2023-02-14T01:18:23.321Z,520.70
2023-02-14T01:19:23.310Z,487.40
2023-02-14T01:20:23.310Z,529.30
2023-02-14T01:21:23.295Z,494.80
2023-02-14T01:22:23.351Z,472.80
2023-02-14T01:23:23.267Z,499.20
2023-02-14T01:24:23.261Z,438.30
2023-02-14T01:25:23.245Z,449.40
2023-02-14T01:26:23.240Z,407.00
2023-02-14T01:27:23.227Z,392.50
2023-02-14T01:28:23.254Z,378.20
2023-02-14T01:29:23.204Z,327.20
2023-02-14T01:30:23.248Z,338.50
2023-02-14T01:31:23.379Z,389.70
2023-02-14T01:32:23.203Z,361.80
2023-02-14T01:33:23.188Z,366.10
2023-02-14T01:34:23.157Z,345.00
2023-02-14T01:35:23.147Z,359.60
2023-02-14T01:36:23.140Z,323.80
2023-02-14T01:37:23.127Z,348.60
2023-02-14T01:38:23.136Z,369.60
2023-02-14T01:39:23.104Z,362.20
2023-02-14T01:40:23.118Z,354.70
2023-02-14T01:41:23.095Z,345.40
2023-02-14T01:42:23.080Z,350.70
2023-02-14T01:43:23.068Z,317.70
2023-02-14T01:44:23.058Z,292.20
2023-02-14T01:45:23.064Z,347.00
2023-02-14T01:46:23.043Z,319.10
2023-02-14T01:47:23.024Z,345.00
2023-02-14T01:48:23.044Z,330.40
2023-02-14T01:49:23.008Z,327.60
2023-02-14T01:50:22.996Z,284.30
2023-02-14T01:51:22.988Z,327.20
2023-02-14T01:52:22.978Z,339.40
2023-02-14T01:53:22.985Z,351.70
2023-02-14T01:54:22.954Z,360.50
2023-02-14T01:55:22.941Z,301.70
2023-02-14T01:56:22.943Z,278.50
2023-02-14T01:57:22.927Z,322.20
2023-02-14T01:58:22.955Z,321.00
2023-02-14T01:59:22.904Z,352.70
2023-02-14T02:00:22.902Z,297.90
2023-02-14T02:01:22.977Z,353.00
2023-02-14T02:02:22.923Z,355.20
2023-02-14T02:03:22.898Z,315.60
2023-02-14T02:04:22.858Z,340.30
2023-02-14T02:05:22.850Z,319.60
2023-02-14T02:06:22.838Z,350.80
2023-02-14T02:07:22.823Z,323.60
2023-02-14T02:08:22.836Z,333.20
2023-02-14T02:09:22.801Z,344.80
2023-02-14T02:10:22.811Z,375.80
2023-02-14T02:11:22.783Z,373.60
2023-02-14T02:12:22.788Z,380.40
2023-02-14T02:13:22.792Z,349.40
2023-02-14T02:14:22.761Z,350.60
2023-02-14T02:15:22.747Z,314.70
2023-02-14T02:16:22.749Z,351.60
2023-02-14T02:17:22.718Z,329.20
2023-02-14T02:18:22.777Z,347.50
2023-02-14T02:19:22.702Z,338.80
2023-02-14T02:20:22.701Z,321.00
2023-02-14T02:21:22.683Z,328.60
2023-02-14T02:22:22.673Z,345.80
2023-02-14T02:23:22.675Z,379.80
2023-02-14T02:24:22.650Z,369.30
2023-02-14T02:25:22.639Z,379.30
2023-02-14T02:26:22.635Z,361.20
2023-02-14T02:27:22.624Z,382.70
2023-02-14T02:28:22.649Z,388.00
2023-02-14T02:29:22.601Z,387.80
2023-02-14T02:30:22.752Z,426.40
2023-02-14T02:31:22.747Z,419.90
2023-02-14T02:32:22.573Z,453.60
2023-02-14T02:33:22.580Z,446.60
2023-02-14T02:34:22.552Z,407.90
2023-02-14T02:35:22.540Z,431.70
2023-02-14T02:36:22.528Z,437.00
2023-02-14T02:37:22.518Z,418.10
2023-02-14T02:38:22.526Z,421.70
2023-02-14T02:39:22.497Z,429.00
2023-02-14T02:40:22.492Z,409.30
2023-02-14T02:41:22.478Z,418.10
2023-02-14T02:42:22.483Z,424.50
2023-02-14T02:43:22.547Z,412.10
2023-02-14T02:44:22.452Z,433.90
2023-02-14T02:45:22.436Z,403.10
2023-02-14T02:46:22.461Z,387.10
2023-02-14T02:47:22.417Z,413.10
2023-02-14T02:48:22.438Z,415.60
2023-02-14T02:49:22.395Z,405.60
2023-02-14T02:50:22.385Z,408.90
2023-02-14T02:51:22.374Z,413.50
2023-02-14T02:52:22.369Z,382.90
2023-02-14T02:53:22.365Z,417.80
2023-02-14T02:54:22.352Z,435.40
2023-02-14T02:55:22.343Z,426.40
2023-02-14T02:56:22.345Z,412.60
2023-02-14T02:57:22.310Z,419.90
2023-02-14T02:58:22.308Z,442.30
2023-02-14T02:59:22.305Z,411.00
2023-02-14T03:00:22.285Z,449.10
2023-02-14T03:01:22.358Z,452.20
2023-02-14T03:02:22.266Z,398.00
2023-02-14T03:03:22.260Z,455.40
2023-02-14T03:04:22.249Z,462.10
2023-02-14T03:05:22.231Z,463.00
2023-02-14T03:06:22.251Z,461.70
2023-02-14T03:07:22.210Z,479.80
2023-02-14T03:08:22.213Z,458.20
2023-02-14T03:09:22.196Z,423.30
2023-02-14T03:10:22.193Z,467.70
2023-02-14T03:11:22.187Z,439.00
2023-02-14T03:12:22.165Z,486.70
2023-02-14T03:13:22.160Z,444.20
2023-02-14T03:14:22.157Z,495.30
2023-02-14T03:15:22.129Z,458.90
2023-02-14T03:16:22.138Z,481.70
2023-02-14T03:17:22.112Z,446.70
2023-02-14T03:18:22.155Z,430.10
2023-02-14T03:19:22.097Z,466.80
2023-02-14T03:20:22.087Z,391.90
2023-02-14T03:21:22.070Z,469.60
2023-02-14T03:22:22.066Z,451.90
2023-02-14T03:23:22.065Z,478.80
2023-02-14T03:24:22.044Z,466.40
2023-02-14T03:25:22.033Z,479.40
2023-02-14T03:26:22.061Z,459.60
2023-02-14T03:27:22.030Z,480.70
2023-02-14T03:28:22.005Z,409.00
2023-02-14T03:29:21.988Z,410.00
2023-02-14T03:30:22.011Z,447.30
2023-02-14T03:31:22.100Z,410.80
2023-02-14T03:32:22.116Z,434.80
2023-02-14T03:33:21.959Z,457.80
2023-02-14T03:34:21.945Z,464.20
2023-02-14T03:35:21.932Z,478.90
2023-02-14T03:36:21.942Z,487.20
2023-02-14T03:37:21.933Z,486.70
2023-02-14T03:38:21.917Z,471.40
2023-02-14T03:39:21.904Z,483.70
2023-02-14T03:40:21.893Z,493.00
2023-02-14T03:41:21.876Z,452.20
2023-02-14T03:42:21.865Z,467.30
2023-02-14T03:43:21.886Z,416.60
2023-02-14T03:44:21.847Z,457.00
2023-02-14T03:45:21.866Z,375.90
2023-02-14T03:46:21.873Z,437.20
2023-02-14T03:47:21.805Z,445.60
2023-02-14T03:48:21.812Z,439.10
2023-02-14T03:49:21.785Z,439.50
2023-02-14T03:50:21.784Z,449.10
2023-02-14T03:51:21.766Z,419.00
2023-02-14T03:52:21.761Z,456.20
2023-02-14T03:53:21.774Z,447.00
2023-02-14T03:54:21.737Z,413.50
2023-02-14T03:55:21.731Z,446.50
2023-02-14T03:56:21.723Z,389.30
2023-02-14T03:57:21.714Z,410.80
2023-02-14T03:58:21.722Z,409.20
2023-02-14T03:59:21.686Z,420.70
2023-02-14T04:00:21.680Z,388.30
2023-02-14T04:01:21.717Z,395.70
2023-02-14T04:02:21.658Z,413.70
2023-02-14T04:03:21.703Z,455.90
2023-02-14T04:04:21.637Z,435.70
2023-02-14T04:05:21.626Z,431.50
2023-02-14T04:06:21.621Z,431.50
2023-02-14T04:07:21.604Z,461.20
2023-02-14T04:08:21.600Z,391.80
2023-02-14T04:09:21.645Z,409.80
2023-02-14T04:10:21.581Z,417.80
2023-02-14T04:11:24.028Z,388.80
2023-02-14T04:12:32.357Z,432.00
2023-02-14T04:13:21.556Z,414.40
2023-02-14T04:14:21.569Z,417.40
2023-02-14T04:15:21.518Z,429.90
2023-02-14T04:16:21.559Z,480.00
2023-02-14T04:17:21.529Z,451.30
2023-02-14T04:18:21.499Z,461.90
2023-02-14T04:19:21.493Z,454.40
2023-02-14T04:20:21.488Z,410.00
2023-02-14T04:21:21.463Z,435.40
2023-02-14T04:22:21.458Z,409.00
2023-02-14T04:23:21.459Z,377.80
2023-02-14T04:24:21.448Z,424.40
2023-02-14T04:25:21.422Z,408.10
2023-02-14T04:26:21.413Z,395.50
2023-02-14T04:27:21.407Z,426.50
2023-02-14T04:28:21.395Z,409.30
2023-02-14T04:29:21.391Z,413.50
2023-02-14T04:30:21.405Z,418.60
2023-02-14T04:31:21.535Z,416.70
2023-02-14T04:32:21.385Z,444.20
2023-02-14T04:33:21.337Z,424.70
2023-02-14T04:34:21.348Z,405.80
2023-02-14T04:35:21.315Z,384.80
2023-02-14T04:36:21.321Z,388.90
2023-02-14T04:37:21.295Z,414.90
2023-02-14T04:38:21.283Z,422.30
2023-02-14T04:39:21.288Z,431.10
2023-02-14T04:40:21.270Z,449.90
2023-02-14T04:41:21.256Z,420.40
2023-02-14T04:42:21.248Z,358.50
2023-02-14T04:43:21.245Z,414.90
2023-02-14T04:44:21.253Z,380.60
2023-02-14T04:45:21.215Z,380.70
2023-02-14T04:46:21.221Z,381.90
2023-02-14T04:47:21.194Z,406.50
2023-02-14T04:48:21.189Z,385.00
2023-02-14T04:49:21.190Z,394.90
2023-02-14T04:50:21.164Z,360.50
2023-02-14T04:51:21.166Z,375.60
2023-02-14T04:52:21.154Z,374.20
2023-02-14T04:53:21.132Z,371.80
2023-02-14T04:54:21.140Z,373.60
2023-02-14T04:55:21.120Z,302.50
2023-02-14T04:56:21.107Z,304.40
2023-02-14T04:57:21.091Z,335.70
2023-02-14T04:58:21.080Z,349.40
2023-02-14T04:59:22.278Z,324.80
2023-02-14T05:00:21.055Z,357.20
2023-02-14T05:01:21.099Z,342.80
2023-02-14T05:02:21.071Z,315.40
2023-02-14T05:03:21.028Z,347.80
2023-02-14T05:04:21.028Z,318.30
2023-02-14T05:05:21.012Z,310.80
2023-02-14T05:06:21.002Z,291.90
2023-02-14T05:07:21.014Z,310.50
2023-02-14T05:08:21.014Z,288.80
2023-02-14T05:09:20.992Z,318.40
2023-02-14T05:10:20.962Z,305.50
2023-02-14T05:11:20.955Z,288.10
2023-02-14T05:12:20.940Z,277.00
2023-02-14T05:13:20.939Z,261.10
2023-02-14T05:14:20.930Z,278.40
2023-02-14T05:15:20.917Z,268.10
2023-02-14T05:16:20.903Z,291.60
2023-02-14T05:17:20.891Z,227.40
2023-02-14T05:18:20.876Z,251.70
2023-02-14T05:19:20.888Z,287.10
2023-02-14T05:20:20.860Z,239.40
2023-02-14T05:21:20.919Z,261.90
2023-02-14T05:22:20.840Z,244.90
2023-02-14T05:23:20.831Z,233.80
2023-02-14T05:24:20.856Z,220.50
2023-02-14T05:25:20.814Z,211.40
2023-02-14T05:26:20.790Z,225.50
2023-02-14T05:27:20.792Z,243.30
2023-02-14T05:28:20.791Z,240.30
2023-02-14T05:29:20.782Z,234.70
2023-02-14T05:30:21.018Z,241.00
2023-02-14T05:31:20.841Z,227.40
2023-02-14T05:32:20.733Z,221.60
2023-02-14T05:33:20.764Z,242.00
2023-02-14T05:34:21.810Z,269.50
2023-02-14T05:35:20.707Z,308.30
2023-02-14T05:36:20.697Z,260.30
2023-02-14T05:37:20.692Z,265.10
2023-02-14T05:38:20.691Z,269.10
2023-02-14T05:39:20.680Z,266.50
2023-02-14T05:40:20.678Z,227.90
2023-02-14T05:41:20.660Z,288.80
2023-02-14T05:42:20.632Z,257.80
2023-02-14T05:43:20.626Z,272.60
2023-02-14T05:44:20.894Z,256.20
2023-02-14T05:45:20.638Z,209.60
2023-02-14T05:46:20.605Z,218.60
2023-02-14T05:47:20.618Z,250.40
2023-02-14T05:48:20.583Z,239.70
2023-02-14T05:49:20.601Z,198.60
2023-02-14T05:50:20.565Z,240.30
2023-02-14T05:51:20.553Z,276.00
2023-02-14T05:52:20.537Z,259.70
2023-02-14T05:53:20.545Z,250.70
2023-02-14T05:54:20.540Z,233.10
2023-02-14T05:55:20.470Z,223.70
2023-02-14T05:56:20.521Z,239.50
2023-02-14T05:57:20.508Z,207.30
2023-02-14T05:58:20.479Z,229.90
2023-02-14T05:59:20.496Z,191.40
2023-02-14T06:00:20.412Z,209.60
2023-02-14T06:01:20.405Z,194.40
2023-02-14T06:02:20.498Z,221.20
2023-02-14T06:03:20.405Z,209.00
2023-02-14T06:04:20.464Z,217.10
2023-02-14T06:05:20.421Z,200.90
2023-02-14T06:06:20.355Z,228.40
2023-02-14T06:07:20.341Z,202.60
2023-02-14T06:08:20.323Z,211.40
2023-02-14T06:09:20.339Z,205.60
2023-02-14T06:10:20.314Z,205.20
2023-02-14T06:11:20.299Z,222.50
2023-02-14T06:12:20.286Z,213.10
2023-02-14T06:13:20.281Z,201.30
2023-02-14T06:14:20.282Z,221.90
2023-02-14T06:15:20.268Z,211.20
2023-02-14T06:16:20.294Z,194.80
2023-02-14T06:17:20.242Z,186.50
2023-02-14T06:18:20.225Z,193.50
2023-02-14T06:19:20.248Z,188.10
2023-02-14T06:20:20.211Z,194.20
2023-02-14T06:21:20.200Z,205.00
2023-02-14T06:22:20.185Z,202.70
2023-02-14T06:23:20.182Z,184.20
2023-02-14T06:24:20.195Z,177.50
2023-02-14T06:25:20.170Z,190.80
2023-02-14T06:26:20.148Z,190.40
2023-02-14T06:27:20.143Z,187.40
2023-02-14T06:28:20.138Z,189.10
2023-02-14T06:29:20.143Z,184.20
2023-02-14T06:30:20.187Z,211.50
2023-02-14T06:31:20.297Z,231.00
2023-02-14T06:32:20.120Z,206.30
2023-02-14T06:33:20.088Z,229.80
2023-02-14T06:34:20.079Z,214.40
2023-02-14T06:35:20.059Z,221.80
2023-02-14T06:36:20.047Z,211.30
2023-02-14T06:37:20.062Z,236.50
2023-02-14T06:38:20.036Z,238.80
2023-02-14T06:39:20.043Z,261.80
2023-02-14T06:40:20.022Z,249.40
2023-02-14T06:41:20.019Z,277.80
2023-02-14T06:42:19.985Z,226.00
2023-02-14T06:43:19.988Z,216.30
2023-02-14T06:44:19.985Z,244.00
2023-02-14T06:45:19.976Z,217.70
2023-02-14T06:46:20.042Z,200.30
2023-02-14T06:47:19.962Z,270.70
2023-02-14T06:48:19.929Z,258.90
2023-02-14T06:49:19.947Z,266.40
2023-02-14T06:50:19.908Z,261.20
2023-02-14T06:51:19.904Z,254.00
2023-02-14T06:52:19.891Z,243.80
2023-02-14T06:53:19.881Z,197.30
2023-02-14T06:54:19.876Z,198.20
2023-02-14T06:55:19.883Z,243.90
2023-02-14T06:56:19.849Z,212.30
2023-02-14T06:57:19.843Z,223.50
2023-02-14T06:58:19.834Z,223.50
2023-02-14T06:59:19.852Z,221.20
2023-02-14T07:00:19.813Z,206.10
2023-02-14T07:01:19.860Z,226.50
2023-02-14T07:02:19.825Z,191.10
2023-02-14T07:03:19.798Z,179.10
2023-02-14T07:04:19.782Z,178.20
2023-02-14T07:05:19.786Z,173.90
2023-02-14T07:06:19.748Z,157.40
2023-02-14T07:07:19.748Z,172.10
2023-02-14T07:08:19.729Z,178.80
2023-02-14T07:09:19.724Z,165.20
2023-02-14T07:10:19.725Z,154.60
2023-02-14T07:11:19.718Z,160.10
2023-02-14T07:12:19.688Z,167.10
2023-02-14T07:13:19.693Z,163.70
2023-02-14T07:14:19.671Z,155.60
2023-02-14T07:15:19.715Z,176.40
2023-02-14T07:16:19.646Z,162.30
2023-02-14T07:17:19.653Z,174.20
2023-02-14T07:18:19.624Z,153.50
2023-02-14T07:19:19.626Z,171.70
2023-02-14T07:20:19.625Z,157.50
2023-02-14T07:21:19.616Z,135.40
2023-02-14T07:22:19.624Z,130.50
2023-02-14T07:23:19.582Z,147.70
2023-02-14T07:24:19.570Z,145.40
2023-02-14T07:25:19.590Z,141.80
2023-02-14T07:26:19.557Z,156.30
2023-02-14T07:27:19.549Z,159.00
2023-02-14T07:28:19.531Z,153.80
2023-02-14T07:29:19.519Z,138.60
2023-02-14T07:30:19.635Z,148.00
2023-02-14T07:31:19.630Z,144.50
2023-02-14T07:32:19.638Z,149.10
2023-02-14T07:33:19.484Z,137.90
2023-02-14T07:34:19.472Z,158.30
2023-02-14T07:35:19.471Z,142.20
2023-02-14T07:36:19.447Z,155.90
2023-02-14T07:37:19.448Z,136.70
2023-02-14T07:38:19.434Z,131.20
2023-02-14T07:39:19.417Z,130.00
2023-02-14T07:40:19.416Z,141.10
2023-02-14T07:41:19.398Z,116.70
2023-02-14T07:42:19.386Z,131.90
2023-02-14T07:43:20.214Z,125.20
2023-02-14T07:44:19.370Z,149.90
2023-02-14T07:45:21.948Z,138.00
2023-02-14T07:46:19.374Z,133.80
2023-02-14T07:47:19.356Z,126.70
2023-02-14T07:48:19.320Z,144.90
2023-02-14T07:49:19.320Z,140.50
2023-02-14T07:50:19.359Z,161.70
2023-02-14T07:51:19.296Z,154.00
2023-02-14T07:52:19.283Z,137.30
2023-02-14T07:53:19.285Z,127.00
2023-02-14T07:54:20.358Z,134.50
2023-02-14T07:55:19.320Z,136.20
2023-02-14T07:56:19.250Z,118.50
2023-02-14T07:57:19.236Z,116.40
2023-02-14T07:58:19.225Z,129.00
2023-02-14T07:59:19.212Z,129.00
2023-02-14T08:00:19.216Z,132.20
2023-02-14T08:01:19.239Z,137.20
2023-02-14T08:02:19.191Z,135.40
2023-02-14T08:03:19.259Z,140.10
2023-02-14T08:04:19.165Z,130.80
2023-02-14T08:05:19.292Z,126.90
2023-02-14T08:06:19.142Z,135.40
2023-02-14T08:07:19.134Z,128.10
2023-02-14T08:08:19.123Z,133.90
2023-02-14T08:09:19.113Z,141.60
2023-02-14T08:10:19.110Z,119.90
2023-02-14T08:11:19.092Z,145.50
2023-02-14T08:12:19.089Z,118.70
2023-02-14T08:13:19.069Z,119.90
2023-02-14T08:14:19.061Z,113.70
2023-02-14T08:15:19.078Z,112.40
2023-02-14T08:16:19.095Z,135.10
2023-02-14T08:17:19.039Z,119.30
2023-02-14T08:18:19.047Z,130.60
2023-02-14T08:19:19.011Z,126.20
2023-02-14T08:20:19.064Z,106.90
2023-02-14T08:21:19.120Z,115.10
2023-02-14T08:22:18.975Z,106.40
2023-02-14T08:23:18.968Z,94.90
2023-02-14T08:24:18.952Z,91.90
2023-02-14T08:25:18.964Z,96.90
2023-02-14T08:26:18.945Z,108.30
2023-02-14T08:27:18.925Z,110.30
2023-02-14T08:28:18.929Z,94.80
2023-02-14T08:29:18.900Z,124.70
2023-02-14T08:30:19.025Z,103.20
2023-02-14T08:31:29.982Z,105.30
2023-02-14T08:32:18.913Z,107.50
2023-02-14T08:33:18.865Z,107.50
2023-02-14T08:34:18.849Z,99.00
2023-02-14T08:35:18.864Z,91.10
2023-02-14T08:36:18.825Z,86.80
2023-02-14T08:37:18.822Z,80.90
2023-02-14T08:38:18.809Z,71.60
2023-02-14T08:39:18.801Z,65.00
2023-02-14T08:40:18.885Z,63.80
2023-02-14T08:41:18.777Z,60.60
2023-02-14T08:42:18.774Z,60.30
2023-02-14T08:43:18.775Z,58.20
2023-02-14T08:44:18.753Z,62.90
2023-02-14T08:45:18.752Z,62.10
2023-02-14T08:46:18.800Z,52.30
2023-02-14T08:47:18.725Z,57.50
2023-02-14T08:48:18.710Z,55.80
2023-02-14T08:49:18.721Z,56.60
2023-02-14T08:50:18.702Z,57.70
2023-02-14T08:51:18.676Z,55.80
2023-02-14T08:52:18.670Z,54.20
2023-02-14T08:53:18.656Z,54.20
2023-02-14T08:54:18.660Z,52.30
2023-02-14T08:55:18.655Z,51.10
2023-02-14T08:56:18.641Z,51.60
2023-02-14T08:58:28.704Z,55.80
2023-02-14T08:59:29.649Z,50.40
2023-02-14T09:00:29.716Z,45.70
2023-02-14T09:01:29.737Z,43.30
2023-02-14T09:02:29.626Z,44.10
2023-02-14T09:03:29.636Z,44.00
2023-02-14T09:04:29.697Z,44.10
2023-02-14T09:05:29.620Z,45.10
2023-02-14T09:06:29.622Z,42.50
2023-02-14T09:07:29.581Z,45.60
2023-02-14T09:08:29.578Z,42.30
2023-02-14T09:09:29.573Z,46.20
2023-02-14T09:10:29.560Z,47.70
2023-02-14T09:11:29.539Z,46.50
2023-02-14T09:12:29.533Z,47.30
2023-02-14T09:13:29.504Z,48.90
2023-02-14T09:14:31.869Z,46.20
2023-02-14T09:15:29.513Z,47.40
2023-02-14T09:16:29.563Z,46.90
2023-02-14T09:17:29.515Z,47.40
2023-02-14T09:18:29.513Z,46.60
2023-02-14T09:19:29.453Z,42.10
2023-02-14T09:20:29.461Z,42.00
2023-02-14T09:21:30.190Z,42.90
2023-02-14T09:22:29.453Z,46.60
2023-02-14T09:23:29.403Z,46.00
2023-02-14T09:24:29.409Z,42.60
2023-02-14T09:25:29.446Z,45.50
2023-02-14T09:26:29.396Z,42.70
2023-02-14T09:27:29.365Z,46.30
2023-02-14T09:28:29.382Z,43.90
2023-02-14T09:29:29.341Z,42.70
2023-02-14T09:30:29.442Z,44.70
2023-02-14T09:31:29.432Z,41.40
2023-02-14T09:32:29.514Z,41.90
2023-02-14T09:33:29.300Z,45.40
2023-02-14T09:34:29.326Z,44.40
2023-02-14T09:35:29.316Z,41.70
2023-02-14T09:36:29.287Z,39.50
2023-02-14T09:37:29.264Z,37.70
2023-02-14T09:38:29.269Z,37.30
2023-02-14T09:39:29.240Z,36.80
2023-02-14T09:40:29.238Z,37.60
2023-02-14T09:41:29.248Z,36.60
2023-02-14T09:42:29.229Z,43.10
2023-02-14T09:43:29.235Z,38.50
2023-02-14T09:44:29.213Z,36.40
2023-02-14T09:45:29.240Z,36.70
2023-02-14T09:46:29.250Z,34.20
2023-02-14T09:47:29.177Z,37.10
2023-02-14T09:48:29.166Z,33.60
2023-02-14T09:49:29.208Z,33.50
2023-02-14T09:50:29.151Z,33.60
2023-02-14T09:51:29.119Z,30.40
2023-02-14T09:52:29.105Z,33.00
2023-02-14T09:53:29.093Z,30.90
2023-02-14T09:54:29.102Z,32.60
2023-02-14T09:55:29.099Z,30.50
2023-02-14T09:56:29.094Z,31.00
2023-02-14T09:57:29.082Z,30.30
2023-02-14T09:58:29.051Z,30.50
2023-02-14T09:59:29.032Z,30.50
2023-02-14T10:00:29.031Z,30.50
2023-02-14T10:01:29.069Z,28.00
2023-02-14T10:02:29.064Z,26.20
2023-02-14T10:03:29.012Z,29.10
2023-02-14T10:04:28.986Z,29.40
2023-02-14T10:05:28.973Z,28.00
2023-02-14T10:06:28.989Z,26.80
2023-02-14T10:07:28.953Z,26.60
2023-02-14T10:08:28.959Z,27.40
2023-02-14T10:09:28.930Z,27.70
2023-02-14T10:10:28.941Z,26.10
2023-02-14T10:11:28.974Z,27.40
2023-02-14T10:12:28.915Z,28.50
2023-02-14T10:13:28.927Z,25.70
2023-02-14T10:14:28.882Z,25.80
2023-02-14T10:15:28.883Z,24.80
2023-02-14T10:16:28.994Z,24.70
2023-02-14T10:17:28.910Z,25.10
2023-02-14T10:18:28.843Z,25.50
2023-02-14T10:19:28.880Z,24.30
2023-02-14T10:20:28.825Z,23.10
2023-02-14T10:21:28.833Z,23.90
2023-02-14T10:22:28.805Z,22.10
2023-02-14T10:23:28.828Z,23.40
2023-02-14T10:24:28.807Z,23.20
2023-02-14T10:25:28.758Z,23.70
2023-02-14T10:26:28.771Z,22.90
2023-02-14T10:27:28.751Z,22.60
2023-02-14T10:28:28.771Z,23.10
2023-02-14T10:29:28.731Z,22.00
2023-02-14T10:30:28.854Z,21.50
2023-02-14T10:31:28.864Z,21.00
2023-02-14T10:32:28.701Z,22.80
2023-02-14T10:33:28.675Z,23.20
2023-02-14T10:34:28.668Z,21.30
2023-02-14T10:35:28.673Z,20.40
2023-02-14T10:36:28.685Z,21.70
2023-02-14T10:37:28.636Z,21.90
2023-02-14T10:38:28.647Z,22.50
2023-02-14T10:39:28.619Z,22.60
2023-02-14T10:40:28.617Z,20.50
2023-02-14T10:41:28.619Z,21.50
2023-02-14T10:42:28.636Z,21.90
2023-02-14T10:43:28.620Z,20.70
2023-02-14T10:44:28.574Z,22.50
2023-02-14T10:45:28.573Z,20.70
2023-02-14T10:46:28.716Z,19.40
2023-02-14T10:47:28.536Z,20.80
2023-02-14T10:48:28.537Z,19.80
2023-02-14T10:49:28.514Z,20.40
2023-02-14T10:50:28.507Z,21.10
2023-02-14T10:51:28.527Z,20.20
2023-02-14T10:52:28.491Z,19.80
2023-02-14T10:53:28.540Z,20.40
2023-02-14T10:54:28.463Z,19.90
2023-02-14T10:55:32.855Z,19.60
2023-02-14T10:56:28.475Z,19.50
2023-02-14T10:57:28.430Z,20.70
2023-02-14T10:58:28.420Z,18.90
2023-02-14T10:59:28.445Z,20.40
2023-02-14T11:00:28.420Z,21.30
2023-02-14T11:01:28.458Z,20.80
2023-02-14T11:02:28.396Z,19.40
2023-02-14T11:03:28.425Z,20.40
2023-02-14T11:04:28.374Z,20.30
2023-02-14T11:05:28.351Z,18.90
2023-02-14T11:06:28.394Z,20.40
2023-02-14T11:07:28.362Z,19.90
2023-02-14T11:08:28.338Z,20.30
2023-02-14T11:09:28.385Z,19.50
2023-02-14T11:10:28.338Z,19.40
2023-02-14T11:11:28.336Z,20.00
2023-02-14T11:12:28.313Z,19.50
2023-02-14T11:13:28.271Z,19.30
2023-02-14T11:14:28.283Z,18.40
2023-02-14T11:15:28.265Z,18.70
2023-02-14T11:16:28.280Z,19.60
2023-02-14T11:17:28.237Z,19.40
2023-02-14T11:18:28.245Z,19.10
2023-02-14T11:19:28.210Z,20.20
2023-02-14T11:20:28.206Z,20.10
2023-02-14T11:21:28.198Z,20.30
2023-02-14T11:22:28.191Z,20.50
2023-02-14T11:23:28.174Z,18.70
2023-02-14T11:24:28.183Z,19.90
2023-02-14T11:25:28.156Z,19.20
2023-02-14T11:26:28.200Z,17.90
2023-02-14T11:27:28.148Z,19.80
2023-02-14T11:28:28.111Z,19.30
2023-02-14T11:29:28.109Z,18.80
2023-02-14T11:30:28.268Z,17.90
2023-02-14T11:31:28.208Z,20.00
2023-02-14T11:32:28.086Z,19.10
2023-02-14T11:33:28.093Z,20.00
2023-02-14T11:34:28.046Z,18.30
2023-02-14T11:35:28.042Z,19.90
2023-02-14T11:36:28.050Z,18.50
2023-02-14T11:37:28.030Z,17.50
2023-02-14T11:38:28.008Z,18.80
2023-02-14T11:39:28.005Z,19.30
2023-02-14T11:40:27.990Z,19.80
2023-02-14T11:41:27.991Z,19.90
2023-02-14T11:42:27.964Z,20.20
2023-02-14T11:43:27.963Z,18.20
2023-02-14T11:44:27.960Z,19.70
2023-02-14T11:45:27.993Z,18.80
2023-02-14T11:46:28.020Z,19.80
2023-02-14T11:47:27.940Z,18.90
2023-02-14T11:48:42.221Z,18.10
2023-02-14T11:49:27.908Z,16.80
2023-02-14T11:50:27.915Z,19.30
2023-02-14T11:51:27.904Z,19.40
2023-02-14T11:52:27.871Z,18.10
2023-02-14T11:53:27.864Z,20.20
2023-02-14T11:54:27.848Z,17.40
2023-02-14T11:55:27.847Z,18.50
2023-02-14T11:56:27.814Z,18.30
2023-02-14T11:57:27.822Z,18.60
2023-02-14T11:58:27.822Z,19.80
2023-02-14T11:59:27.800Z,18.90
2023-02-14T12:00:27.820Z,18.70
2023-02-14T12:01:27.790Z,17.80
2023-02-14T12:02:27.831Z,18.30
2023-02-14T12:03:27.827Z,18.20
2023-02-14T12:04:27.838Z,17.90
2023-02-14T12:05:27.754Z,18.70
2023-02-14T12:06:27.737Z,17.70
2023-02-14T12:07:27.707Z,19.40
2023-02-14T12:08:27.700Z,18.30
2023-02-14T12:09:27.713Z,18.10
2023-02-14T12:10:27.672Z,18.50
2023-02-14T12:11:27.675Z,18.80
2023-02-14T12:12:27.671Z,18.60
2023-02-14T12:13:27.688Z,18.70
2023-02-14T12:14:27.636Z,18.40
2023-02-14T12:15:27.683Z,18.60
2023-02-14T12:16:28.354Z,17.70
2023-02-14T12:17:27.606Z,18.20
2023-02-14T12:18:27.595Z,18.50
2023-02-14T12:19:27.578Z,18.10
2023-02-14T12:20:27.567Z,18.10
2023-02-14T12:21:27.579Z,18.30
2023-02-14T12:22:28.477Z,17.90
2023-02-14T12:23:27.549Z,18.60
2023-02-14T12:24:27.665Z,20.10
2023-02-14T12:25:27.516Z,19.00
2023-02-14T12:26:27.547Z,18.30
2023-02-14T12:27:27.501Z,17.60
2023-02-14T12:28:27.520Z,18.50
2023-02-14T12:29:27.498Z,17.80
2023-02-14T12:30:27.578Z,17.80
2023-02-14T12:31:27.608Z,18.60
2023-02-14T12:32:27.464Z,19.50
2023-02-14T12:33:27.443Z,19.60
2023-02-14T12:34:27.456Z,18.00
2023-02-14T12:35:27.428Z,17.70
2023-02-14T12:36:27.424Z,18.20
2023-02-14T12:37:27.394Z,17.40